Time;durP1;ratioP1;P1;durP2;ratioP2;P2;SDS_P1;SDS_P2;PMS_P1;PMS_P2;Temp;Humidity;BMP_temperature;BMP_pressure;BME280_temperature;BME280_humidity;BME280_pressure;Samples;Min_cycle;Max_cycle;Signal;HPM_P1;HPM_P2
2021/09/12 00:00:33;;;;;;;2.67;2.47;;;;;;;9.03;100.00;93405.59;2115655;28;20031;-79
2021/09/12 00:01:34;;;;;;;2.80;2.60;;;;;;;9.02;100.00;93408.69;2106603;28;20350;-80
2021/09/12 00:02:36;;;;;;;2.70;2.50;;;;;;;8.96;100.00;93408.38;2106605;28;20052;-80
2021/09/12 00:03:37;;;;;;;2.42;2.28;;;;;;;8.88;100.00;93404.25;2115789;28;20472;-77
2021/09/12 00:04:38;;;;;;;4.03;2.50;;;;;;;8.90;100.00;93401.94;2106703;28;20472;-81
2021/09/12 00:05:39;;;;;;;4.50;2.40;;;;;;;8.89;100.00;93405.78;2106434;28;20024;-80
2021/09/12 00:06:40;;;;;;;3.53;2.58;;;;;;;8.87;100.00;93399.31;2115782;28;20024;-79
2021/09/12 00:07:40;;;;;;;3.53;2.47;;;;;;;8.83;100.00;93402.78;2105533;28;20563;-78
2021/09/12 00:08:41;;;;;;;3.47;2.50;;;;;;;8.80;100.00;93398.25;2104451;28;20052;-76
2021/09/12 00:09:43;;;;;;;4.30;2.63;;;;;;;8.84;100.00;93400.88;2115833;28;20028;-78
2021/09/12 00:10:43;;;;;;;6.00;2.60;;;;;;;8.76;100.00;93407.44;2106452;28;20034;-79
2021/09/12 00:11:45;;;;;;;3.10;2.80;;;;;;;8.71;100.00;93400.63;2098236;28;20531;-81
2021/09/12 00:12:45;;;;;;;5.72;2.60;;;;;;;8.71;100.00;93399.88;2098111;28;20031;-79
2021/09/12 00:13:46;;;;;;;8.20;2.90;;;;;;;8.71;100.00;93403.28;2106791;28;20103;-78
2021/09/12 00:14:47;;;;;;;3.35;2.83;;;;;;;8.70;100.00;93404.44;2097984;28;20020;-79
2021/09/12 00:15:49;;;;;;;3.63;2.85;;;;;;;8.78;100.00;93402.44;2098276;28;20362;-76
2021/09/12 00:16:50;;;;;;;4.18;2.70;;;;;;;8.71;100.00;93402.53;2115365;28;20024;-77
2021/09/12 00:17:52;;;;;;;3.92;2.50;;;;;;;8.77;100.00;93395.59;2115349;28;20382;-82
2021/09/12 00:18:53;;;;;;;3.25;2.53;;;;;;;8.74;100.00;93396.44;2106666;28;20020;-80
2021/09/12 00:19:54;;;;;;;2.70;2.50;;;;;;;8.71;100.00;93394.53;2106487;28;20024;-79
2021/09/12 00:20:55;;;;;;;4.93;2.70;;;;;;;8.74;100.00;93397.19;2106486;28;20027;-76
2021/09/12 00:21:56;;;;;;;2.92;2.50;;;;;;;8.67;100.00;93388.50;2098110;28;20032;-78
2021/09/12 00:22:57;;;;;;;3.50;2.58;;;;;;;8.79;100.00;93390.66;2106576;28;20020;-78
2021/09/12 00:23:58;;;;;;;3.53;2.97;;;;;;;8.74;100.00;93391.09;2115477;28;20111;-76
2021/09/12 00:24:59;;;;;;;3.28;2.90;;;;;;;8.73;100.00;93390.31;2106425;28;20019;-81
2021/09/12 00:26:00;;;;;;;3.00;2.72;;;;;;;8.73;100.00;93387.66;2106648;28;20031;-78
2021/09/12 00:27:01;;;;;;;4.53;2.78;;;;;;;8.69;100.00;93391.50;2106388;28;20024;-79
2021/09/12 00:28:02;;;;;;;2.65;2.45;;;;;;;8.69;100.00;93389.63;2097883;28;20052;-79
2021/09/12 00:29:03;;;;;;;5.75;2.55;;;;;;;8.60;100.00;93396.53;2106688;28;20028;-78
2021/09/12 00:30:06;;;;;;;3.28;2.90;;;;;;;8.62;100.00;93387.00;2114949;28;20484;-82
2021/09/12 00:31:06;;;;;;;5.35;3.13;;;;;;;8.66;100.00;93389.66;2114933;28;20467;-78
2021/09/12 00:32:08;;;;;;;5.32;2.75;;;;;;;8.68;100.00;93390.00;2115339;28;20030;-78
2021/09/12 00:33:09;;;;;;;3.10;2.30;;;;;;;8.71;100.00;93397.22;2115508;28;20376;-79
2021/09/12 00:34:10;;;;;;;3.42;3.13;;;;;;;8.70;100.00;93390.38;2115502;28;20023;-80
2021/09/12 00:35:11;;;;;;;3.42;2.40;;;;;;;8.70;100.00;93388.47;2106515;28;20019;-78
2021/09/12 00:36:12;;;;;;;3.97;2.22;;;;;;;8.74;100.00;93391.09;2106349;28;20102;-77
2021/09/12 00:37:13;;;;;;;3.35;2.83;;;;;;;8.71;100.00;93386.53;2112264;28;20092;-79
2021/09/12 00:38:14;;;;;;;3.25;2.47;;;;;;;8.66;100.00;93394.97;2101464;28;20909;-79
2021/09/12 00:39:14;;;;;;;14.30;3.88;;;;;;;8.62;100.00;93395.00;2106441;28;20030;-82
2021/09/12 00:40:19;;;;;;;2.50;2.30;;;;;;;8.58;100.00;93389.72;2109318;28;20081;-77
2021/09/12 00:41:20;;;;;;;3.58;2.72;;;;;;;8.60;100.00;93396.53;2114487;28;20391;-78
2021/09/12 00:42:21;;;;;;;2.88;2.65;;;;;;;8.58;100.00;93389.72;2113588;28;20043;-76
2021/09/12 00:43:22;;;;;;;3.13;2.67;;;;;;;8.57;100.00;93385.53;2114295;28;20109;-82
2021/09/12 00:44:24;;;;;;;6.05;2.33;;;;;;;8.55;100.00;93387.81;2114952;28;20507;-81
2021/09/12 00:45:25;;;;;;;5.15;2.38;;;;;;;8.54;100.00;93388.22;2115331;28;20015;-78
2021/09/12 00:46:26;;;;;;;3.22;2.38;;;;;;;8.52;100.00;93387.88;2114002;28;20024;-81
2021/09/12 00:47:27;;;;;;;3.20;2.50;;;;;;;8.49;100.00;93388.66;2114825;28;20813;-77
2021/09/12 00:48:28;;;;;;;3.28;2.95;;;;;;;8.51;100.00;93386.34;2115218;28;20028;-78
2021/09/12 00:49:29;;;;;;;4.82;2.80;;;;;;;8.52;100.00;93391.31;2115397;28;20468;-78
2021/09/12 00:50:30;;;;;;;4.60;2.75;;;;;;;8.46;100.00;93387.53;2106081;28;20034;-76
2021/09/12 00:51:31;;;;;;;2.65;2.45;;;;;;;8.45;100.00;93387.94;2106785;28;20036;-78
2021/09/12 00:52:38;;;;;;;3.45;2.50;;;;;;;8.45;100.00;93393.28;2114824;28;20095;-83
2021/09/12 00:53:40;;;;;;;7.53;2.70;;;;;;;8.30;100.00;93396.03;2114874;28;20507;-81
2021/09/12 00:54:42;;;;;;;3.33;2.83;;;;;;;8.32;100.00;93388.41;2115356;28;20057;-79
2021/09/12 00:55:45;;;;;;;3.95;2.75;;;;;;;8.36;100.00;93395.59;2114779;28;20376;-79
2021/09/12 00:56:46;;;;;;;6.10;2.60;;;;;;;8.32;100.00;93384.97;2114633;28;20020;-81
2021/09/12 00:57:48;;;;;;;3.08;2.25;;;;;;;8.25;100.00;93390.34;2115424;28;20023;-77
2021/09/12 00:58:50;;;;;;;3.40;2.42;;;;;;;8.30;100.00;93395.28;2115228;28;20058;-78
2021/09/12 00:59:53;;;;;;;3.05;2.75;;;;;;;8.41;100.00;93389.88;2106275;28;20074;-78
2021/09/12 01:00:54;;;;;;;6.38;2.60;;;;;;;8.38;100.00;93393.31;2098346;28;20024;-78
2021/09/12 01:01:56;;;;;;;3.53;2.55;;;;;;;8.41;100.00;93389.88;2106230;28;20023;-81
2021/09/12 01:02:57;;;;;;;3.42;2.80;;;;;;;8.39;100.00;93394.84;2114642;28;20050;-81
2021/09/12 01:03:59;;;;;;;3.03;2.55;;;;;;;8.37;100.00;93389.91;2114689;28;20015;-78
2021/09/12 01:05:00;;;;;;;5.80;2.80;;;;;;;8.38;100.00;93394.06;2109933;28;20103;-80
2021/09/12 01:06:01;;;;;;;2.60;2.33;;;;;;;8.37;100.00;93394.47;2113770;28;20099;-80
2021/09/12 01:07:04;;;;;;;4.13;2.35;;;;;;;8.35;100.00;93394.09;2105509;28;20112;-81
2021/09/12 01:08:07;;;;;;;3.58;2.78;;;;;;;8.33;100.00;93391.81;2111608;28;20078;-77
2021/09/12 01:09:08;;;;;;;4.20;2.78;;;;;;;8.37;100.00;93391.81;2111133;28;20026;-79
2021/09/12 01:10:10;;;;;;;4.15;2.50;;;;;;;8.38;100.00;93382.66;2114765;28;20102;-82
2021/09/12 01:11:11;;;;;;;2.60;2.40;;;;;;;8.39;100.00;93379.63;2115343;28;20039;-77
2021/09/12 01:12:12;;;;;;;4.47;2.95;;;;;;;8.41;100.00;93382.63;2114633;28;20106;-77
2021/09/12 01:13:13;;;;;;;7.43;2.85;;;;;;;8.22;100.00;93388.50;2114445;28;20023;-77
2021/09/12 01:14:14;;;;;;;3.88;2.53;;;;;;;8.28;100.00;93377.00;2115251;28;20030;-77
2021/09/12 01:15:15;;;;;;;3.75;3.10;;;;;;;8.22;100.00;93385.84;2115257;28;20972;-81
2021/09/12 01:16:18;;;;;;;5.47;2.88;;;;;;;8.30;100.00;93392.63;2114493;28;20020;-75
2021/09/12 01:17:25;;;;;;;3.75;2.80;;;;;;;8.36;100.00;93390.28;2106563;28;20107;-77
2021/09/12 01:18:26;;;;;;;4.05;2.92;;;;;;;8.24;100.00;93386.19;2107038;28;20024;-78
2021/09/12 01:19:28;;;;;;;5.63;3.15;;;;;;;8.20;100.00;93385.47;2114713;28;20058;-78
2021/09/12 01:20:29;;;;;;;5.22;2.65;;;;;;;8.14;100.00;93393.13;2115162;28;20487;-79
2021/09/12 01:21:32;;;;;;;3.00;2.80;;;;;;;8.14;100.00;93381.72;2115240;28;20011;-78
2021/09/12 01:22:34;;;;;;;4.75;2.45;;;;;;;8.18;100.00;93385.88;2114734;28;20015;-80
2021/09/12 01:23:35;;;;;;;2.97;2.78;;;;;;;8.25;100.00;93387.69;2114631;28;20034;-77
2021/09/12 01:24:39;;;;;;;2.88;2.67;;;;;;;8.26;100.00;93384.66;2115200;28;20016;-77
2021/09/12 01:25:40;;;;;;;5.85;2.60;;;;;;;8.26;100.00;93379.34;2114781;28;20023;-80
2021/09/12 01:26:41;;;;;;;4.32;3.22;;;;;;;8.11;100.00;93382.50;2114502;28;20106;-79
2021/09/12 01:27:42;;;;;;;6.72;2.75;;;;;;;8.07;100.00;93390.50;2114428;28;20091;-77
2021/09/12 01:28:43;;;;;;;3.78;2.53;;;;;;;8.05;100.00;93384.81;2115011;28;20102;-77
2021/09/12 01:29:44;;;;;;;4.28;2.58;;;;;;;8.16;100.00;93384.72;2114417;28;20027;-79
2021/09/12 01:30:45;;;;;;;3.05;2.75;;;;;;;8.12;100.00;93384.00;2106208;28;20024;-83
2021/09/12 01:31:46;;;;;;;3.22;2.40;;;;;;;8.11;100.00;93383.25;2114417;28;20024;-80
2021/09/12 01:32:47;;;;;;;4.40;3.20;;;;;;;8.10;100.00;93375.66;2115053;28;20042;-77
2021/09/12 01:33:48;;;;;;;3.53;2.85;;;;;;;8.10;100.00;93379.06;2115191;28;20030;-78
2021/09/12 01:34:49;;;;;;;3.30;3.00;;;;;;;8.09;100.00;93380.22;2114631;28;20019;-76
2021/09/12 01:35:49;;;;;;;4.25;2.33;;;;;;;8.18;100.00;93377.88;2106233;28;20065;-78
2021/09/12 01:36:50;;;;;;;6.47;2.70;;;;;;;8.11;100.00;93377.16;2105759;28;20047;-79
2021/09/12 01:37:51;;;;;;;3.33;2.90;;;;;;;8.05;100.00;93372.28;2103759;28;20114;-80
2021/09/12 01:38:53;;;;;;;4.18;2.42;;;;;;;8.05;100.00;93374.94;2113273;28;20045;-80
2021/09/12 01:39:54;;;;;;;3.28;2.97;;;;;;;8.04;100.00;93378.75;2114407;28;20110;-79
2021/09/12 01:40:55;;;;;;;3.30;2.70;;;;;;;7.98;100.00;93377.63;2114491;28;20035;-76
2021/09/12 01:41:55;;;;;;;2.85;2.40;;;;;;;8.02;100.00;93374.97;2115172;28;20051;-76
2021/09/12 01:42:59;;;;;;;2.92;2.70;;;;;;;8.04;100.00;93376.09;2105590;28;20028;-81
2021/09/12 01:44:02;;;;;;;3.38;2.72;;;;;;;8.10;100.00;93376.41;2106505;28;20020;-81
2021/09/12 01:45:04;;;;;;;6.03;3.08;;;;;;;8.08;100.00;93376.06;2115050;28;20028;-82
2021/09/12 01:46:05;;;;;;;3.75;2.53;;;;;;;8.06;100.00;93373.03;2115484;28;20024;-76
2021/09/12 01:47:06;;;;;;;3.20;2.80;;;;;;;8.11;100.00;93377.16;2116280;28;20030;-75
2021/09/12 01:48:07;;;;;;;3.22;2.55;;;;;;;8.12;100.00;93371.47;2116701;28;20027;-76
2021/09/12 01:49:08;;;;;;;3.00;2.80;;;;;;;8.10;100.00;93373.00;2116540;28;20028;-77
2021/09/12 01:50:09;;;;;;;3.03;2.70;;;;;;;8.10;100.00;93381.00;2116216;28;20027;-75
2021/09/12 01:51:11;;;;;;;3.17;2.92;;;;;;;8.06;100.00;93370.38;2108224;28;20023;-77
2021/09/12 01:52:13;;;;;;;4.30;3.10;;;;;;;8.01;100.00;93370.78;2100404;28;20028;-76
2021/09/12 01:53:14;;;;;;;5.55;3.08;;;;;;;8.01;100.00;93368.88;2108026;28;20024;-76
2021/09/12 01:54:15;;;;;;;4.20;2.60;;;;;;;8.02;100.00;93372.28;2115968;28;20061;-81
2021/09/12 01:55:16;;;;;;;7.72;2.75;;;;;;;8.09;100.00;93372.25;2106265;28;20055;-79
2021/09/12 01:56:18;;;;;;;3.42;2.78;;;;;;;8.09;100.00;93366.94;2114543;28;20043;-79
2021/09/12 01:57:19;;;;;;;3.33;3.03;;;;;;;8.05;100.00;93364.28;2114211;28;20404;-77
2021/09/12 01:58:19;;;;;;;5.15;2.83;;;;;;;8.09;100.00;93364.25;2105882;28;20028;-79
2021/09/12 01:59:20;;;;;;;7.35;2.53;;;;;;;8.09;100.00;93366.94;2107861;28;20136;-81
2021/09/12 02:00:21;;;;;;;3.13;2.80;;;;;;;8.03;100.00;93360.50;2107596;28;20023;-80
2021/09/12 02:01:22;;;;;;;2.90;2.70;;;;;;;8.15;100.00;93356.59;2116086;28;20057;-77
2021/09/12 02:02:23;;;;;;;7.63;3.00;;;;;;;8.08;100.00;93358.19;2116050;28;20023;-81
2021/09/12 02:03:25;;;;;;;3.47;2.90;;;;;;;8.11;100.00;93363.84;2107379;28;20039;-78
2021/09/12 02:04:26;;;;;;;3.90;2.70;;;;;;;8.01;100.00;93360.13;2099524;28;20027;-78
2021/09/12 02:07:20;;;;;;;;;;;;;;;8.23;100.00;93356.16;2140399;27;20641;-79
2021/09/12 02:08:21;;;;;;;2.55;2.35;;;;;;;8.40;100.00;93359.06;2135834;27;19951;-80
2021/09/12 02:09:26;;;;;;;3.25;2.45;;;;;;;8.43;100.00;93367.03;2122208;27;20023;-80
2021/09/12 02:10:28;;;;;;;2.80;2.60;;;;;;;8.41;100.00;93364.00;2130474;27;20443;-79
2021/09/12 02:11:29;;;;;;;7.28;2.90;;;;;;;8.32;100.00;93361.75;2122149;27;20464;-78
2021/09/12 02:12:30;;;;;;;4.82;2.97;;;;;;;8.31;100.00;93364.84;2130236;27;20026;-80
2021/09/12 02:13:31;;;;;;;5.38;2.53;;;;;;;8.22;100.00;93364.53;2138987;27;20025;-80
2021/09/12 02:14:32;;;;;;;6.75;3.22;;;;;;;8.16;100.00;93360.78;2139914;27;20018;-79
2021/09/12 02:15:33;;;;;;;3.42;2.85;;;;;;;8.09;100.00;93366.94;2134342;27;20102;-78
2021/09/12 02:16:34;;;;;;;3.28;2.97;;;;;;;8.14;100.00;93360.41;2126544;27;20038;-82
2021/09/12 02:17:35;;;;;;;2.80;2.60;;;;;;;8.19;100.00;93358.06;2138869;27;20026;-78
2021/09/12 02:18:36;;;;;;;5.20;3.08;;;;;;;8.24;100.00;93360.31;2139557;27;20082;-81
2021/09/12 02:19:37;;;;;;;5.30;2.80;;;;;;;8.20;100.00;93358.84;2137796;27;20446;-80
2021/09/12 02:20:39;;;;;;;4.03;3.05;;;;;;;8.16;100.00;93363.44;2133973;27;20027;-81
2021/09/12 02:21:40;;;;;;;5.80;2.70;;;;;;;8.10;100.00;93370.34;2134529;27;20111;-79
2021/09/12 02:22:40;;;;;;;3.85;2.40;;;;;;;8.21;100.00;93363.78;2134151;27;20022;-79
2021/09/12 02:23:42;;;;;;;3.50;2.53;;;;;;;8.24;100.00;93356.91;2133630;27;20481;-80
2021/09/12 02:24:43;;;;;;;3.03;2.58;;;;;;;8.25;100.00;93361.84;2133819;27;20522;-81
2021/09/12 02:25:44;;;;;;;3.05;2.75;;;;;;;8.18;100.00;93369.88;2133874;27;20026;-82
2021/09/12 02:26:45;;;;;;;4.13;2.50;;;;;;;8.24;100.00;93356.91;2135975;27;20480;-81
2021/09/12 02:27:46;;;;;;;3.22;2.30;;;;;;;8.19;100.00;93368.72;2135504;27;20027;-80
2021/09/12 02:28:47;;;;;;;4.22;2.67;;;;;;;8.18;100.00;93366.47;2133090;27;20106;-78
2021/09/12 02:29:47;;;;;;;4.50;2.75;;;;;;;8.15;100.00;93367.25;2132093;27;20058;-77
2021/09/12 02:30:48;;;;;;;4.35;2.85;;;;;;;8.17;100.00;93351.66;2130284;27;20019;-78
2021/09/12 02:31:49;;;;;;;2.88;2.60;;;;;;;8.10;100.00;93354.38;2130945;27;20045;-79
2021/09/12 02:32:50;;;;;;;2.70;2.50;;;;;;;8.05;100.00;93353.63;2132916;27;20053;-78
2021/09/12 02:33:51;;;;;;;3.10;2.42;;;;;;;8.14;100.00;93357.75;2138757;27;20044;-79
2021/09/12 02:34:52;;;;;;;5.93;2.88;;;;;;;8.03;100.00;93349.84;2139121;27;20539;-79
2021/09/12 02:35:53;;;;;;;4.13;2.40;;;;;;;8.08;100.00;93352.84;2124947;27;20031;-79
2021/09/12 02:36:54;;;;;;;5.82;2.20;;;;;;;8.10;100.00;93346.38;2130110;27;20417;-79
2021/09/12 02:37:55;;;;;;;3.22;2.90;;;;;;;8.10;100.00;93351.69;2127385;27;20027;-76
2021/09/12 02:38:56;;;;;;;2.88;2.60;;;;;;;8.09;100.00;93348.28;2137871;27;20022;-80
2021/09/12 02:39:57;;;;;;;3.63;2.50;;;;;;;8.05;100.00;93347.56;2131402;27;20026;-79
2021/09/12 02:40:59;;;;;;;2.85;2.60;;;;;;;8.06;100.00;93344.50;2135151;27;20027;-81
2021/09/12 02:42:00;;;;;;;3.22;2.67;;;;;;;8.04;100.00;93346.06;2134409;27;20034;-78
2021/09/12 02:43:01;;;;;;;2.90;2.60;;;;;;;8.06;100.00;93341.84;2138686;27;20033;-80
2021/09/12 02:44:03;;;;;;;2.85;2.65;;;;;;;8.04;100.00;93343.38;2138584;27;20018;-79
2021/09/12 02:45:06;;;;;;;4.20;2.33;;;;;;;8.04;100.00;93346.81;2121738;27;20099;-78
2021/09/12 02:46:08;;;;;;;6.85;2.47;;;;;;;8.02;100.00;93345.66;2130617;27;20063;-80
2021/09/12 02:47:08;;;;;;;3.35;2.45;;;;;;;8.00;100.00;93340.75;2139517;27;20030;-77
2021/09/12 02:48:09;;;;;;;3.17;2.58;;;;;;;8.00;100.00;93342.66;2133796;27;20014;-81
2021/09/12 02:49:10;;;;;;;3.45;2.50;;;;;;;7.94;100.00;93342.31;2131166;27;20023;-77
2021/09/12 02:50:11;;;;;;;2.80;2.60;;;;;;;8.00;100.00;93343.41;2136063;27;20032;-77
2021/09/12 02:51:12;;;;;;;8.45;2.67;;;;;;;7.94;100.00;93344.97;2131092;27;20019;-77
2021/09/12 02:52:13;;;;;;;2.80;2.50;;;;;;;7.89;100.00;93340.06;2137134;27;20063;-80
2021/09/12 02:53:14;;;;;;;4.47;2.63;;;;;;;7.86;100.00;93351.53;2131683;27;20023;-81
2021/09/12 02:54:15;;;;;;;2.60;2.40;;;;;;;7.91;100.00;93337.78;2134246;27;20944;-80
2021/09/12 02:55:16;;;;;;;4.15;2.65;;;;;;;7.96;100.00;93342.69;2132826;27;20072;-77
2021/09/12 02:56:17;;;;;;;2.63;2.38;;;;;;;7.90;100.00;93338.94;2130858;27;20023;-82
2021/09/12 02:57:18;;;;;;;2.90;2.70;;;;;;;7.85;100.00;93347.31;2130192;27;20031;-78
2021/09/12 02:58:19;;;;;;;3.80;2.47;;;;;;;7.89;100.00;93341.97;2132605;27;20022;-78
2021/09/12 02:59:20;;;;;;;3.88;2.30;;;;;;;7.90;100.00;93346.94;2135993;27;20130;-79
2021/09/12 03:00:21;;;;;;;3.72;2.40;;;;;;;7.82;100.00;93348.13;2132134;27;20026;-80
2021/09/12 03:01:21;;;;;;;4.10;2.03;;;;;;;7.94;100.00;93341.56;2137209;27;20766;-81
2021/09/12 03:02:22;;;;;;;2.80;2.60;;;;;;;7.92;100.00;93339.28;2138681;27;20053;-75
2021/09/12 03:03:23;;;;;;;2.80;2.60;;;;;;;7.91;100.00;93348.44;2138376;27;20014;-79
2021/09/12 03:04:24;;;;;;;3.50;2.40;;;;;;;7.86;100.00;93342.75;2135103;27;20554;-77
2021/09/12 03:05:25;;;;;;;2.53;2.33;;;;;;;7.86;100.00;93346.19;2133241;27;20039;-79
2021/09/12 03:06:26;;;;;;;3.47;2.60;;;;;;;7.88;100.00;93338.56;2126703;27;20050;-76
2021/09/12 03:07:27;;;;;;;3.15;2.63;;;;;;;7.86;100.00;93348.06;2125100;27;20519;-76
2021/09/12 03:08:28;;;;;;;3.75;2.60;;;;;;;7.83;100.00;93344.31;2122258;27;20035;-78
2021/09/12 03:09:29;;;;;;;2.70;2.30;;;;;;;7.82;100.00;93335.56;2120843;28;20483;-83
2021/09/12 03:10:30;;;;;;;2.60;2.40;;;;;;;7.81;100.00;93338.59;2113107;27;20070;-81
2021/09/12 03:11:32;;;;;;;3.13;2.17;;;;;;;7.68;100.00;93342.88;2130000;27;20026;-77
2021/09/12 03:12:33;;;;;;;5.47;2.30;;;;;;;7.69;100.00;93341.75;2129943;27;20507;-80
2021/09/12 03:13:34;;;;;;;2.83;2.13;;;;;;;7.73;100.00;93343.25;2129895;27;20019;-79
2021/09/12 03:14:35;;;;;;;4.72;2.70;;;;;;;7.69;100.00;93329.22;2130576;27;20115;-79
2021/09/12 03:15:36;;;;;;;2.47;2.28;;;;;;;7.72;100.00;93338.31;2130674;27;20105;-80
2021/09/12 03:16:37;;;;;;;3.28;2.55;;;;;;;7.75;100.00;93332.97;2130004;27;20491;-79
2021/09/12 03:17:37;;;;;;;2.65;2.45;;;;;;;7.71;100.00;93336.78;2112949;28;20061;-80
2021/09/12 03:18:38;;;;;;;5.32;2.55;;;;;;;7.70;100.00;93333.38;2116218;28;20031;-81
2021/09/12 03:19:39;;;;;;;4.45;2.38;;;;;;;7.73;100.00;93337.19;2124899;27;20041;-76
2021/09/12 03:20:40;;;;;;;3.75;2.10;;;;;;;7.75;100.00;93334.88;2116081;27;20024;-79
2021/09/12 03:21:42;;;;;;;3.78;2.75;;;;;;;7.71;100.00;93329.56;2104426;28;20026;-79
2021/09/12 03:22:43;;;;;;;2.65;2.25;;;;;;;7.63;100.00;93333.41;2107553;27;20389;-77
2021/09/12 03:23:45;;;;;;;3.38;2.40;;;;;;;7.58;100.00;93326.63;2115769;28;20051;-82
2021/09/12 03:24:46;;;;;;;3.35;2.17;;;;;;;7.58;100.00;93331.19;2115533;28;20389;-76
2021/09/12 03:25:47;;;;;;;5.78;2.47;;;;;;;7.56;100.00;93330.84;2115831;27;20034;-81
2021/09/12 03:26:47;;;;;;;6.25;2.60;;;;;;;7.54;100.00;93330.44;2124824;27;20023;-80
2021/09/12 03:27:51;;;;;;;2.30;2.10;;;;;;;7.51;100.00;93328.59;2123385;27;20050;-80
2021/09/12 03:28:52;;;;;;;2.40;2.20;;;;;;;7.62;100.00;93329.25;2124920;27;20029;-78
2021/09/12 03:29:53;;;;;;;3.15;2.22;;;;;;;7.52;100.00;93330.84;2115364;28;20034;-77
2021/09/12 03:30:54;;;;;;;2.65;2.45;;;;;;;7.52;100.00;93333.50;2107149;28;20032;-79
2021/09/12 03:31:55;;;;;;;3.55;2.40;;;;;;;7.52;100.00;93336.16;2115625;28;20027;-78
2021/09/12 03:32:56;;;;;;;9.02;2.55;;;;;;;7.50;100.00;93325.16;2124138;27;20027;-77
2021/09/12 03:33:57;;;;;;;6.07;2.53;;;;;;;7.48;100.00;93332.03;2124008;27;20015;-76
2021/09/12 03:34:58;;;;;;;3.90;2.03;;;;;;;7.50;100.00;93333.13;2107093;28;20024;-79
2021/09/12 03:35:59;;;;;;;2.92;2.20;;;;;;;7.48;100.00;93332.03;2107238;28;20058;-77
2021/09/12 03:37:00;;;;;;;2.80;2.60;;;;;;;7.43;100.00;93338.50;2115754;27;20077;-82
2021/09/12 03:38:01;;;;;;;2.70;2.50;;;;;;;7.42;100.00;93329.03;2118332;27;20102;-77
2021/09/12 03:39:02;;;;;;;2.47;2.28;;;;;;;7.50;100.00;93330.47;2123773;27;20015;-79
2021/09/12 03:40:04;;;;;;;3.63;2.42;;;;;;;7.47;100.00;93336.59;2115357;28;20015;-83
2021/09/12 03:41:05;;;;;;;2.95;2.15;;;;;;;7.48;100.00;93330.13;2124283;27;20081;-83
2021/09/12 03:42:05;;;;;;;7.00;2.70;;;;;;;7.47;100.00;93328.59;2124029;27;20093;-78
2021/09/12 03:43:07;;;;;;;3.08;2.78;;;;;;;7.55;100.00;93332.75;2115347;28;20551;-76
2021/09/12 03:44:08;;;;;;;2.55;2.28;;;;;;;7.54;100.00;93328.53;2124058;27;20027;-79
2021/09/12 03:45:10;;;;;;;3.35;2.40;;;;;;;7.48;100.00;93330.13;2124664;27;20023;-80
2021/09/12 03:46:10;;;;;;;7.38;2.33;;;;;;;7.49;100.00;93328.22;2124581;27;20727;-81
2021/09/12 03:47:11;;;;;;;2.28;1.90;;;;;;;7.48;100.00;93330.13;2123864;27;20023;-78
2021/09/12 03:48:12;;;;;;;2.55;2.35;;;;;;;7.52;100.00;93333.50;2123891;27;20027;-77
2021/09/12 03:49:14;;;;;;;2.60;2.40;;;;;;;7.41;100.00;93322.16;2124474;27;20030;-77
2021/09/12 03:50:14;;;;;;;3.47;2.65;;;;;;;7.43;100.00;93335.09;2119309;27;20546;-78
2021/09/12 03:51:15;;;;;;;3.38;2.08;;;;;;;7.39;100.00;93326.38;2115600;28;20026;-78
2021/09/12 03:52:17;;;;;;;2.42;2.20;;;;;;;7.42;100.00;93329.03;2116212;28;20019;-77
2021/09/12 03:53:17;;;;;;;3.40;2.50;;;;;;;7.37;100.00;93331.31;2116170;28;20478;-79
2021/09/12 03:54:18;;;;;;;6.10;2.40;;;;;;;7.40;100.00;93319.91;2115999;28;20023;-78
2021/09/12 03:55:19;;;;;;;6.35;2.60;;;;;;;7.39;100.00;93321.81;2115300;28;20026;-76
2021/09/12 03:56:20;;;;;;;3.88;2.45;;;;;;;7.38;100.00;93320.31;2115469;28;20518;-79
2021/09/12 03:57:23;;;;;;;2.70;2.50;;;;;;;7.36;100.00;93313.84;2107069;28;20013;-79
2021/09/12 03:58:24;;;;;;;2.50;2.30;;;;;;;7.38;100.00;93316.91;2115351;28;20020;-81
2021/09/12 03:59:25;;;;;;;2.97;2.08;;;;;;;7.35;100.00;93326.41;2115208;28;20020;-79
2021/09/12 04:00:26;;;;;;;2.35;2.15;;;;;;;7.38;100.00;93320.31;2118578;27;20019;-81
2021/09/12 04:01:27;;;;;;;4.18;2.30;;;;;;;7.40;100.00;93322.56;2115332;27;20480;-76
2021/09/12 04:02:28;;;;;;;2.83;2.25;;;;;;;7.37;100.00;93318.78;2115317;28;20019;-79
2021/09/12 04:03:30;;;;;;;2.33;2.13;;;;;;;7.37;100.00;93324.09;2123771;27;20086;-78
2021/09/12 04:04:31;;;;;;;2.33;2.10;;;;;;;7.33;100.00;93315.38;2124506;27;20140;-79
2021/09/12 04:05:32;;;;;;;3.20;2.22;;;;;;;7.39;100.00;93313.84;2124310;27;20080;-79
2021/09/12 04:06:32;;;;;;;2.47;2.20;;;;;;;7.39;100.00;93311.19;2124197;27;20544;-78
2021/09/12 04:07:34;;;;;;;2.47;2.28;;;;;;;7.39;100.00;93307.78;2123661;27;20069;-82
2021/09/12 04:08:35;;;;;;;2.88;2.30;;;;;;;7.36;100.00;93314.63;2115093;28;20031;-76
2021/09/12 04:09:36;;;;;;;3.53;2.35;;;;;;;7.34;100.00;93308.94;2115427;28;20105;-79
2021/09/12 04:10:37;;;;;;;3.95;2.35;;;;;;;7.37;100.00;93307.38;2123934;27;20052;-77
2021/09/12 04:11:37;;;;;;;2.30;2.10;;;;;;;7.40;100.00;93311.94;2123692;27;20031;-80
2021/09/12 04:12:38;;;;;;;2.53;2.33;;;;;;;7.34;100.00;93314.25;2123808;27;20027;-76
2021/09/12 04:13:39;;;;;;;3.15;2.67;;;;;;;7.31;100.00;93315.03;2124486;27;20026;-79
2021/09/12 04:14:40;;;;;;;2.30;2.15;;;;;;;7.30;100.00;93321.50;2124108;27;20106;-78
2021/09/12 04:15:41;;;;;;;2.45;2.15;;;;;;;7.32;100.00;93319.19;2123760;27;20056;-79
2021/09/12 04:16:43;;;;;;;7.25;2.40;;;;;;;7.36;100.00;93319.94;2123691;27;20030;-81
2021/09/12 04:17:44;;;;;;;3.15;2.40;;;;;;;7.37;100.00;93316.13;2124430;27;20372;-78
2021/09/12 04:18:45;;;;;;;3.08;2.30;;;;;;;7.34;100.00;93316.16;2123575;27;20038;-78
2021/09/12 04:19:46;;;;;;;2.60;2.40;;;;;;;7.40;100.00;93312.69;2114839;28;20019;-78
2021/09/12 04:20:47;;;;;;;2.13;2.03;;;;;;;7.40;100.00;93310.03;2098296;28;20043;-79
2021/09/12 04:21:48;;;;;;;5.97;2.35;;;;;;;7.37;100.00;93313.47;2107069;28;20031;-82
2021/09/12 04:22:49;;;;;;;2.30;2.10;;;;;;;7.30;100.00;93311.63;2115769;27;20086;-79
2021/09/12 04:23:50;;;;;;;3.33;2.42;;;;;;;7.31;100.00;93313.13;2115205;28;20398;-78
2021/09/12 04:24:51;;;;;;;5.82;2.60;;;;;;;7.34;100.00;93316.16;2115230;28;20528;-78
2021/09/12 04:25:52;;;;;;;3.33;2.33;;;;;;;7.37;100.00;93315.38;2118856;27;20027;-78
2021/09/12 04:26:53;;;;;;;2.63;2.42;;;;;;;7.34;100.00;93321.47;2121538;27;20031;-78
2021/09/12 04:27:54;;;;;;;3.80;2.63;;;;;;;7.35;100.00;93318.41;2119498;27;20464;-77
2021/09/12 04:28:54;;;;;;;5.57;2.83;;;;;;;7.38;100.00;93324.88;2111407;28;20024;-77
2021/09/12 04:29:56;;;;;;;4.72;2.42;;;;;;;7.35;100.00;93315.00;2116692;28;20517;-78
2021/09/12 04:30:57;;;;;;;2.63;2.42;;;;;;;7.39;100.00;93316.50;2123568;27;20019;-77
2021/09/12 04:31:57;;;;;;;5.07;2.08;;;;;;;7.39;100.00;93321.06;2118991;27;20363;-78
2021/09/12 04:32:58;;;;;;;3.80;2.50;;;;;;;7.43;100.00;93325.22;2118148;27;20027;-80
2021/09/12 04:33:59;;;;;;;3.10;2.40;;;;;;;7.49;100.00;93323.63;2115315;27;20031;-80
2021/09/12 04:35:00;;;;;;;5.55;2.30;;;;;;;7.43;100.00;93317.22;2115530;28;20043;-79
2021/09/12 04:36:01;;;;;;;5.75;2.67;;;;;;;7.34;100.00;93316.16;2115038;28;20020;-82
2021/09/12 04:37:03;;;;;;;5.72;2.58;;;;;;;7.38;100.00;93317.66;2106664;28;20368;-76
2021/09/12 04:38:04;;;;;;;4.07;2.60;;;;;;;7.43;100.00;93321.81;2118141;27;20084;-81
2021/09/12 04:39:05;;;;;;;5.88;2.40;;;;;;;7.50;100.00;93311.84;2123975;27;20071;-77
2021/09/12 04:40:06;;;;;;;3.88;2.40;;;;;;;7.47;100.00;93312.66;2119312;27;20069;-79
2021/09/12 04:41:07;;;;;;;6.03;2.65;;;;;;;7.46;100.00;93316.47;2120602;27;20483;-79
2021/09/12 04:42:09;;;;;;;3.83;2.70;;;;;;;7.54;100.00;93309.91;2124228;27;20548;-78
2021/09/12 04:43:10;;;;;;;4.85;2.38;;;;;;;7.62;100.00;93310.63;2123373;27;20495;-79
2021/09/12 04:44:10;;;;;;;3.25;2.53;;;;;;;7.60;100.00;93312.94;2123471;27;20023;-81
2021/09/12 04:45:11;;;;;;;2.35;2.15;;;;;;;7.59;100.00;93314.06;2118231;27;20096;-76
2021/09/12 04:46:13;;;;;;;4.60;2.20;;;;;;;7.62;100.00;93315.94;2106720;28;20075;-77
2021/09/12 04:47:14;;;;;;;2.80;2.60;;;;;;;7.66;100.00;93315.94;2106637;28;20024;-77
2021/09/12 04:48:15;;;;;;;6.15;2.83;;;;;;;7.63;100.00;93314.81;2106636;28;20509;-78
2021/09/12 04:49:15;;;;;;;4.90;2.55;;;;;;;7.66;100.00;93310.63;2115521;28;20026;-79
2021/09/12 04:50:16;;;;;;;5.20;2.38;;;;;;;7.68;100.00;93318.94;2120179;27;20034;-79